Terminal Aerodrome Forecast
Issued by NWS

Home | Current Version | Previous Version | Text Only | Print | Product List | Glossary On
Versions: 1 2 3 4 5 6 7 8 9 10 11 12 13
000
FTUS42 TJSJ 242339
TAFJPS
TAF
TJPS 242339Z 2500/2524 07007KT P6SM FEW030 SCT050
     FM250300 05003KT P6SM FEW030
     FM251400 14015KT P6SM SCT030
      AMD NOT SKED=

USA.gov is the U.S. government's official web portal to all federal, state and local government web resources and services.